Ana Sayfa
METAR-TAF:

METAR-TAF

Havaalanları :

Çiğli Hava Üssü

İzmir, Türkiye

Enlem: 38-30N, Boylam: 027-01E, yükseklik: 5 m

Güncel hava durumu gözlemi

Rapor saat 12:05 UTC de 5 saat ve 20 dakika önce yapıldı.
Rüzgar kuzey/kuzeybatıdan 6 kt
Sıcaklık 18°C
Nem 83%
Basınç 1014 hPa
Görüş mesafesi: 5000 m
4000 ft yükseklikte parçalı bulutlu
9000 ft yükseklikte parçalı çok bulutlu
Pus

METAR: LTBL 231205Z 33006KT 5000 BR SCT040 BKN090 18/15 Q1014 RESHRA BECMG 9999 NSW RMK RWY17 36006KT

Saat: 20:25 (17:25 UTC)

Tahmin

Rapor saat 13:40 UTC de 3 saat ve 45 dakika önce yapıldı.
Ayın 23'si saat 15 UTC'den ayın 23'si saat 24 UTC'ye kadar geçerli Tahmin
Rüzgar değişken yönden 2 kt
Görüş mesafesi: 7000 m
4000 ft yükseklikte parçalı bulutlu
10000 ft yükseklikte parçalı çok bulutlu
Geçici
ayın 23'si saat 15 UTC'den ayın 23'si saat 18 UTC'ye kadar
hafif sağanak yağmurlar

TAF: LTBL 231340Z 2315/2324 VRB02KT 7000 SCT040 BKN100 TEMPO 2315/2318 -SHRA

4.000'den fazla havaalanı için hava durumu gözlemleri ve tahminleri (METAR ve TAF raporları).

Kullanılabilir istasyonlar harita üzerinde sarı ve kırmızı noktalarla gösterilir.

İstasyonun adını görmek için fareyi noktanın üzerinde gezdirin.

Sonrasında hava gözlem ve tahminlerini görmek için tıklayın.

Haritayı değiştirmek için: yaklaştırmak için siyah artı işaretli yeşil düğmeye ve uzaklaştırmak için de eksi işaretli düğmeye hızla tıklayın; bitişik haritalar için yeşil okları kullanın.


METAR-TAF: